createdAt,value
2023-03-07T00:00:46.523Z,4.65
2023-03-07T00:03:49.386Z,4.58
2023-03-07T00:06:51.754Z,4.54
2023-03-07T00:09:54.442Z,4.37
2023-03-07T00:12:56.993Z,4.44
2023-03-07T00:16:04.698Z,4.42
2023-03-07T00:19:08.180Z,4.45
2023-03-07T00:22:14.182Z,4.36
2023-03-07T00:25:17.041Z,4.58
2023-03-07T00:28:19.651Z,4.53
2023-03-07T00:31:23.393Z,4.34
2023-03-07T00:34:26.029Z,4.38
2023-03-07T00:37:30.189Z,4.17
2023-03-07T00:40:32.792Z,4.21
2023-03-07T00:43:35.810Z,4.03
2023-03-07T00:46:38.520Z,4.06
2023-03-07T00:49:41.081Z,4.02
2023-03-07T00:52:43.845Z,4.20
2023-03-07T00:55:57.590Z,4.14
2023-03-07T00:59:00.241Z,4.14
2023-03-07T01:02:02.713Z,4.00
2023-03-07T01:05:06.336Z,4.02
2023-03-07T01:08:08.693Z,4.16
2023-03-07T01:11:13.218Z,4.18
2023-03-07T01:14:15.733Z,4.25
2023-03-07T01:17:18.529Z,4.20
2023-03-07T01:20:21.089Z,4.27
2023-03-07T01:23:23.807Z,4.17
2023-03-07T01:26:29.422Z,4.36
2023-03-07T01:29:32.761Z,4.19
2023-03-07T01:32:35.667Z,4.36
2023-03-07T01:35:39.442Z,4.34
2023-03-07T01:38:41.887Z,4.39
2023-03-07T01:41:45.698Z,4.24
2023-03-07T01:45:36.216Z,4.26
2023-03-07T01:48:39.503Z,4.32
2023-03-07T01:51:45.197Z,4.30
2023-03-07T01:54:52.411Z,4.27
2023-03-07T01:57:56.844Z,4.23
2023-03-07T02:00:59.747Z,4.05
2023-03-07T02:04:21.483Z,4.22
2023-03-07T02:07:29.350Z,4.25
2023-03-07T02:10:33.904Z,4.20
2023-03-07T02:13:36.667Z,4.29
2023-03-07T02:16:39.973Z,4.24
2023-03-07T02:19:45.891Z,4.38
2023-03-07T02:22:50.001Z,4.40
2023-03-07T02:25:59.470Z,4.40
2023-03-07T02:29:03.090Z,4.47
2023-03-07T02:32:07.119Z,4.51
2023-03-07T02:35:23.956Z,4.56
2023-03-07T02:38:27.980Z,4.47
2023-03-07T02:41:33.175Z,4.47
2023-03-07T02:44:36.441Z,4.62
2023-03-07T02:47:39.234Z,4.57
2023-03-07T02:50:42.133Z,4.42
2023-03-07T02:53:46.008Z,4.58
2023-03-07T02:56:48.898Z,4.44
2023-03-07T02:59:51.386Z,4.63
2023-03-07T03:02:54.340Z,4.65
2023-03-07T03:05:56.792Z,4.68
2023-03-07T03:09:00.758Z,4.71
2023-03-07T03:12:03.363Z,4.64
2023-03-07T03:15:07.089Z,4.61
2023-03-07T03:18:09.540Z,4.67
2023-03-07T03:21:12.886Z,4.63
2023-03-07T03:24:15.603Z,4.53
2023-03-07T03:27:18.995Z,4.47
2023-03-07T03:30:22.185Z,4.50
2023-03-07T03:33:27.160Z,4.54
2023-03-07T03:36:29.608Z,4.57
2023-03-07T03:39:34.838Z,4.46
2023-03-07T03:42:37.313Z,4.62
2023-03-07T03:45:40.220Z,4.48
2023-03-07T03:48:43.132Z,4.62
2023-03-07T03:51:45.814Z,4.49
2023-03-07T03:54:48.293Z,4.63
2023-03-07T03:57:50.994Z,4.73
2023-03-07T04:00:53.367Z,4.67
2023-03-07T04:03:57.742Z,4.77
2023-03-07T04:07:00.189Z,4.76
2023-03-07T04:10:03.694Z,4.70
2023-03-07T04:13:06.384Z,4.58
2023-03-07T04:16:09.412Z,4.69
2023-03-07T04:19:13.082Z,4.54
2023-03-07T04:22:17.598Z,4.48
2023-03-07T04:25:20.181Z,4.54
2023-03-07T04:28:25.243Z,4.61
2023-03-07T04:31:29.331Z,4.63
2023-03-07T04:34:33.282Z,4.66
2023-03-07T04:37:35.740Z,4.71
2023-03-07T04:40:38.477Z,4.56
2023-03-07T04:43:41.510Z,4.56
2023-03-07T04:46:44.307Z,4.54
2023-03-07T04:49:46.734Z,4.51
2023-03-07T04:52:50.552Z,4.51
2023-03-07T04:55:58.710Z,4.51
2023-03-07T04:59:01.659Z,4.55
2023-03-07T05:02:04.248Z,4.46
2023-03-07T05:05:07.935Z,4.56
2023-03-07T05:08:10.698Z,4.58
2023-03-07T05:11:13.678Z,4.63
2023-03-07T05:14:16.358Z,4.57
2023-03-07T05:17:19.752Z,4.60
2023-03-07T05:20:23.617Z,4.58
2023-03-07T05:23:26.488Z,4.44
2023-03-07T05:26:29.279Z,4.59
2023-03-07T05:29:31.999Z,4.61
2023-03-07T05:32:34.970Z,4.67
2023-03-07T05:35:39.020Z,4.68
2023-03-07T05:38:42.043Z,4.74
2023-03-07T05:41:45.028Z,4.73
2023-03-07T05:44:47.966Z,4.70
2023-03-07T05:47:51.158Z,4.60
2023-03-07T05:50:53.705Z,4.52
2023-03-07T05:54:04.507Z,4.53
2023-03-07T05:57:07.144Z,4.41
2023-03-07T06:00:11.479Z,4.60
2023-03-07T06:03:16.178Z,4.63
2023-03-07T06:06:19.007Z,4.70
2023-03-07T06:09:23.612Z,4.70
2023-03-07T06:12:26.712Z,4.75
2023-03-07T06:15:29.119Z,4.80
2023-03-07T06:18:31.993Z,4.83
2023-03-07T06:21:34.569Z,4.94
2023-03-07T06:24:37.533Z,4.95
2023-03-07T06:27:40.575Z,4.97
2023-03-07T06:30:43.419Z,5.08
2023-03-07T06:33:47.623Z,5.09
2023-03-07T06:36:50.838Z,5.02
2023-03-07T06:39:54.207Z,4.96
2023-03-07T06:42:56.982Z,4.89
2023-03-07T06:46:00.466Z,5.02
2023-03-07T06:49:04.097Z,5.09
2023-03-07T06:52:06.520Z,5.14
2023-03-07T06:55:10.190Z,5.13
2023-03-07T06:58:13.180Z,5.04
2023-03-07T07:01:20.373Z,5.11
2023-03-07T07:04:23.356Z,5.09
2023-03-07T07:07:26.722Z,5.13
2023-03-07T07:10:29.181Z,5.19
2023-03-07T07:13:32.554Z,5.24
2023-03-07T07:16:36.475Z,5.39
2023-03-07T07:19:39.715Z,5.38
2023-03-07T07:22:42.426Z,5.43
2023-03-07T07:25:45.012Z,5.54
2023-03-07T07:28:47.344Z,5.47
2023-03-07T07:31:50.293Z,5.60
2023-03-07T07:34:53.125Z,5.53
2023-03-07T07:37:56.255Z,5.74
2023-03-07T07:40:58.624Z,5.87
2023-03-07T07:44:01.373Z,5.99
2023-03-07T07:47:06.920Z,6.03
2023-03-07T07:50:10.229Z,6.13
2023-03-07T07:53:13.838Z,6.19
2023-03-07T07:56:17.043Z,6.16
2023-03-07T07:59:19.940Z,6.19
2023-03-07T08:02:22.825Z,6.38
2023-03-07T08:05:25.581Z,6.16
2023-03-07T08:08:27.954Z,6.37
2023-03-07T08:11:30.690Z,6.39
2023-03-07T08:14:34.229Z,6.54
2023-03-07T08:17:36.879Z,6.59
2023-03-07T08:20:39.745Z,6.78
2023-03-07T08:23:42.552Z,6.56
2023-03-07T08:26:44.946Z,6.48
2023-03-07T08:29:50.447Z,6.54
2023-03-07T08:32:54.730Z,6.51
2023-03-07T08:36:00.225Z,6.51
2023-03-07T08:39:03.990Z,6.53
2023-03-07T08:42:07.071Z,6.72
2023-03-07T08:45:10.092Z,6.86
2023-03-07T08:48:12.779Z,6.97
2023-03-07T08:51:16.765Z,6.92
2023-03-07T08:54:19.440Z,6.92
2023-03-07T08:57:22.097Z,7.02
2023-03-07T09:00:25.177Z,7.08
2023-03-07T09:03:27.590Z,7.18
2023-03-07T09:06:30.194Z,7.18
2023-03-07T09:09:32.652Z,7.19
2023-03-07T09:12:36.200Z,7.19
2023-03-07T09:15:40.185Z,7.21
2023-03-07T09:18:42.889Z,7.20
2023-03-07T09:21:45.324Z,7.24
2023-03-07T09:24:47.945Z,7.32
2023-03-07T09:27:54.092Z,7.26
2023-03-07T09:30:56.767Z,7.25
2023-03-07T09:33:59.169Z,7.24
2023-03-07T09:37:01.925Z,7.33
2023-03-07T09:40:07.709Z,7.18
2023-03-07T09:43:22.115Z,7.40
2023-03-07T09:47:13.336Z,7.57
2023-03-07T09:50:49.619Z,7.46
2023-03-07T09:54:20.298Z,7.52
2023-03-07T09:57:36.041Z,7.76
2023-03-07T10:00:42.886Z,7.93
2023-03-07T10:04:02.213Z,7.75
2023-03-07T10:07:05.260Z,7.73
2023-03-07T10:10:17.627Z,7.84
2023-03-07T10:13:44.723Z,8.29
2023-03-07T10:17:08.850Z,8.42
2023-03-07T10:20:32.084Z,8.32
2023-03-07T10:24:13.421Z,8.61
2023-03-07T10:27:16.384Z,8.43
2023-03-07T10:30:20.995Z,8.48
2023-03-07T10:33:23.704Z,8.60
2023-03-07T10:36:39.860Z,8.74
2023-03-07T10:39:52.364Z,8.86
2023-03-07T10:42:57.078Z,9.04
2023-03-07T10:46:25.310Z,9.01
2023-03-07T10:49:43.833Z,9.09
2023-03-07T10:52:50.238Z,9.04
2023-03-07T10:56:08.166Z,9.15
2023-03-07T10:59:10.628Z,9.02
2023-03-07T11:02:36.285Z,8.93
2023-03-07T11:05:40.719Z,9.23
2023-03-07T11:08:45.505Z,9.47
2023-03-07T11:12:12.324Z,9.25
2023-03-07T11:15:24.772Z,9.38
2023-03-07T11:18:42.705Z,9.01
2023-03-07T11:21:54.122Z,9.17
2023-03-07T11:25:01.310Z,9.38
2023-03-07T11:28:04.164Z,8.90
2023-03-07T11:31:12.891Z,9.06
2023-03-07T11:34:35.206Z,9.00
2023-03-07T11:37:54.742Z,9.30
2023-03-07T11:41:16.031Z,9.36
2023-03-07T11:44:33.571Z,9.27
2023-03-07T11:48:10.782Z,9.28
2023-03-07T11:51:26.098Z,9.31
2023-03-07T11:54:43.731Z,9.06
2023-03-07T11:58:15.132Z,8.81
2023-03-07T12:01:23.914Z,8.46
2023-03-07T12:04:35.645Z,8.42
2023-03-07T12:08:00.635Z,8.44
2023-03-07T12:11:18.438Z,8.34
2023-03-07T12:14:36.294Z,8.60
2023-03-07T12:17:49.041Z,8.57
2023-03-07T12:21:03.396Z,8.47
2023-03-07T12:24:27.851Z,8.30
2023-03-07T12:27:39.653Z,8.13
2023-03-07T12:30:51.786Z,8.35
2023-03-07T12:34:07.105Z,8.39
2023-03-07T12:37:25.507Z,8.15
2023-03-07T12:40:49.467Z,8.44
2023-03-07T12:43:58.061Z,8.58
2023-03-07T12:47:10.697Z,8.38
2023-03-07T12:50:23.412Z,8.40
2023-03-07T12:53:44.530Z,8.31
2023-03-07T12:56:51.319Z,8.19
2023-03-07T12:59:59.658Z,8.02
2023-03-07T13:03:06.678Z,7.87
2023-03-07T13:06:21.829Z,8.14
2023-03-07T13:09:27.377Z,7.96
2023-03-07T13:12:34.507Z,7.85
2023-03-07T13:15:37.070Z,7.78
2023-03-07T13:18:39.909Z,7.76
2023-03-07T13:21:42.745Z,7.72
2023-03-07T13:24:46.681Z,7.82
2023-03-07T13:27:53.731Z,7.78
2023-03-07T13:31:20.870Z,7.57
2023-03-07T13:34:48.264Z,7.33
2023-03-07T13:38:16.737Z,7.34
2023-03-07T13:41:44.998Z,7.39
2023-03-07T13:44:47.450Z,7.58
2023-03-07T13:47:50.224Z,7.40
2023-03-07T13:50:52.662Z,7.58
2023-03-07T13:54:02.300Z,7.58
2023-03-07T13:57:05.473Z,7.61
2023-03-07T14:00:31.893Z,7.61
2023-03-07T14:03:38.676Z,7.62
2023-03-07T14:06:44.878Z,7.65
2023-03-07T14:10:12.677Z,7.71
2023-03-07T14:13:43.876Z,7.61
2023-03-07T14:17:20.352Z,7.64
2023-03-07T14:20:41.923Z,7.56
2023-03-07T14:24:08.375Z,7.52
2023-03-07T14:27:16.494Z,7.44
2023-03-07T14:30:20.178Z,7.54
2023-03-07T14:33:30.204Z,7.51
2023-03-07T14:36:33.008Z,7.47
2023-03-07T14:39:51.912Z,7.58
2023-03-07T14:43:21.019Z,7.40
2023-03-07T14:46:26.362Z,7.43
2023-03-07T14:50:06.748Z,7.45
2023-03-07T14:53:15.388Z,7.47
2023-03-07T14:56:28.427Z,7.29
2023-03-07T14:59:30.776Z,7.33
2023-03-07T15:02:33.613Z,7.28
2023-03-07T15:05:51.680Z,7.32
2023-03-07T15:08:59.551Z,7.33
2023-03-07T15:12:07.234Z,7.13
2023-03-07T15:15:27.527Z,7.18
2023-03-07T15:18:43.700Z,7.15
2023-03-07T15:21:49.452Z,7.08
2023-03-07T15:24:52.541Z,7.09
2023-03-07T15:28:01.144Z,7.15
2023-03-07T15:31:04.969Z,7.16
2023-03-07T15:34:22.972Z,7.28
2023-03-07T15:37:32.591Z,7.31
2023-03-07T15:40:36.405Z,7.24
2023-03-07T15:43:38.891Z,7.15
2023-03-07T15:46:53.718Z,6.89
2023-03-07T15:49:59.499Z,6.81
2023-03-07T15:53:25.290Z,6.70
2023-03-07T15:56:35.257Z,6.88
2023-03-07T15:59:42.478Z,6.81
2023-03-07T16:02:50.330Z,6.87
2023-03-07T16:05:54.252Z,6.68
2023-03-07T16:08:56.543Z,6.88
2023-03-07T16:11:59.708Z,6.93
2023-03-07T16:15:03.072Z,6.97
2023-03-07T16:18:06.126Z,6.93
2023-03-07T16:21:13.293Z,7.04
2023-03-07T16:24:15.965Z,6.81
2023-03-07T16:27:21.362Z,6.87
2023-03-07T16:30:27.374Z,6.89
2023-03-07T16:33:29.774Z,6.98
2023-03-07T16:36:32.524Z,6.63
2023-03-07T16:39:35.292Z,6.69
2023-03-07T16:42:38.395Z,6.69
2023-03-07T16:45:40.826Z,6.65
2023-03-07T16:48:44.586Z,6.62
2023-03-07T16:51:51.078Z,6.82
2023-03-07T16:55:02.369Z,6.87
2023-03-07T16:58:06.400Z,6.82
2023-03-07T17:01:14.003Z,6.76
2023-03-07T17:04:16.741Z,6.89
2023-03-07T17:07:26.514Z,6.77
2023-03-07T17:10:29.469Z,6.70
2023-03-07T17:13:32.454Z,6.81
2023-03-07T17:16:44.889Z,6.81
2023-03-07T17:19:47.865Z,6.83
2023-03-07T17:22:50.759Z,6.86
2023-03-07T17:25:53.566Z,6.77
2023-03-07T17:28:58.661Z,6.71
2023-03-07T17:32:01.427Z,6.76
2023-03-07T17:35:04.061Z,6.78
2023-03-07T17:38:06.968Z,6.63
2023-03-07T17:41:09.436Z,6.73
2023-03-07T17:44:12.624Z,6.57
2023-03-07T17:47:14.991Z,6.67
2023-03-07T17:50:19.534Z,6.65
2023-03-07T17:53:21.901Z,6.63
2023-03-07T17:56:25.492Z,6.59
2023-03-07T17:59:27.839Z,6.44
2023-03-07T18:02:30.533Z,6.62
2023-03-07T18:05:33.198Z,6.56
2023-03-07T18:08:36.555Z,6.62
2023-03-07T18:11:39.216Z,6.66
2023-03-07T18:14:41.545Z,6.66
2023-03-07T18:17:48.778Z,6.74
2023-03-07T18:21:05.400Z,6.69
2023-03-07T18:24:30.158Z,6.60
2023-03-07T18:27:32.649Z,6.52
2023-03-07T18:30:35.266Z,6.76
2023-03-07T18:33:38.385Z,6.76
2023-03-07T18:36:41.896Z,6.70
2023-03-07T18:39:44.611Z,6.80
2023-03-07T18:42:47.309Z,6.73
2023-03-07T18:45:50.858Z,6.64
2023-03-07T18:48:54.991Z,6.78
2023-03-07T18:51:57.375Z,6.85
2023-03-07T18:55:00.022Z,6.80
2023-03-07T18:58:03.394Z,6.89
2023-03-07T19:01:15.313Z,6.89
2023-03-07T19:04:18.445Z,6.70
2023-03-07T19:07:21.301Z,6.74
2023-03-07T19:10:23.718Z,6.76
2023-03-07T19:13:26.514Z,6.74
2023-03-07T19:16:29.127Z,6.71
2023-03-07T19:19:31.821Z,6.75
2023-03-07T19:22:34.241Z,6.80
2023-03-07T19:25:36.913Z,6.77
2023-03-07T19:28:40.290Z,6.62
2023-03-07T19:31:44.424Z,6.63
2023-03-07T19:34:50.539Z,6.69
2023-03-07T19:37:53.180Z,6.68
2023-03-07T19:40:55.667Z,6.60
2023-03-07T19:43:59.862Z,6.64
2023-03-07T19:47:02.277Z,6.63
2023-03-07T19:50:05.406Z,6.69
2023-03-07T19:53:07.764Z,6.63
2023-03-07T19:56:24.965Z,6.58
2023-03-07T19:59:27.280Z,6.78
2023-03-07T20:02:29.977Z,6.81
2023-03-07T20:05:32.746Z,6.83
2023-03-07T20:08:35.603Z,6.80
2023-03-07T20:11:40.755Z,6.77
2023-03-07T20:14:44.586Z,6.76
2023-03-07T20:17:47.341Z,6.80
2023-03-07T20:20:49.711Z,6.86
2023-03-07T20:23:53.934Z,6.82
2023-03-07T20:26:56.557Z,6.80
2023-03-07T20:29:59.201Z,6.80
2023-03-07T20:33:01.586Z,6.83
2023-03-07T20:36:05.981Z,6.96
2023-03-07T20:39:14.413Z,7.00
2023-03-07T20:42:17.043Z,6.99
2023-03-07T20:45:19.692Z,6.97
2023-03-07T20:48:22.729Z,6.95
2023-03-07T20:51:27.938Z,6.90
2023-03-07T20:54:30.586Z,6.85
2023-03-07T20:57:32.972Z,7.00
2023-03-07T21:00:35.552Z,6.99
2023-03-07T21:03:38.465Z,7.01
2023-03-07T21:06:43.211Z,6.93
2023-03-07T21:09:50.805Z,7.10
2023-03-07T21:12:53.681Z,7.09
2023-03-07T21:15:58.741Z,7.01
2023-03-07T21:19:05.628Z,7.09
2023-03-07T21:22:08.090Z,7.12
2023-03-07T21:25:10.713Z,7.16
2023-03-07T21:28:13.128Z,6.96
2023-03-07T21:31:18.421Z,7.01
2023-03-07T21:34:20.805Z,7.13
2023-03-07T21:37:23.436Z,7.21
2023-03-07T21:40:25.872Z,7.10
2023-03-07T21:43:29.033Z,7.09
2023-03-07T21:46:31.538Z,6.92
2023-03-07T21:49:34.270Z,7.04
2023-03-07T21:52:36.742Z,7.07
2023-03-07T21:55:39.574Z,6.99
2023-03-07T21:58:42.395Z,7.03
2023-03-07T22:01:45.067Z,7.08
2023-03-07T22:04:47.825Z,6.83
2023-03-07T22:07:51.621Z,7.00
2023-03-07T22:11:00.260Z,6.99
2023-03-07T22:14:03.608Z,6.95
2023-03-07T22:17:06.434Z,7.04
2023-03-07T22:20:11.007Z,6.95
2023-03-07T22:23:13.787Z,6.98
2023-03-07T22:26:16.121Z,7.03
2023-03-07T22:29:18.949Z,6.83
2023-03-07T22:32:21.498Z,6.85
2023-03-07T22:35:24.181Z,6.91
2023-03-07T22:38:26.591Z,6.92
2023-03-07T22:41:29.328Z,6.82
2023-03-07T22:44:31.753Z,6.76
2023-03-07T22:47:34.643Z,6.56
2023-03-07T22:50:38.978Z,6.54
2023-03-07T22:53:41.963Z,6.63
2023-03-07T22:56:44.472Z,6.44
2023-03-07T22:59:50.020Z,6.52
2023-03-07T23:02:54.374Z,6.45
2023-03-07T23:06:00.315Z,6.45
2023-03-07T23:09:03.896Z,6.31
2023-03-07T23:12:07.059Z,6.30
2023-03-07T23:15:09.677Z,6.26
2023-03-07T23:18:12.448Z,6.40
2023-03-07T23:21:16.987Z,6.37
2023-03-07T23:24:19.724Z,6.27
2023-03-07T23:27:22.548Z,6.25
2023-03-07T23:30:25.228Z,6.14
2023-03-07T23:33:27.629Z,6.20
2023-03-07T23:36:31.559Z,6.07
2023-03-07T23:39:33.934Z,6.22
2023-03-07T23:42:36.585Z,6.15
2023-03-07T23:45:39.360Z,6.17
2023-03-07T23:48:42.012Z,6.12
2023-03-07T23:51:44.711Z,5.95
2023-03-07T23:54:47.403Z,6.08
2023-03-07T23:57:49.783Z,6.04
